Inuvik Mike Zubko Airport
CYEV : rendu visible

Aérodrome :











RETROUVEZ-NOUS SUR...

 
LOGIN :

S'inscrire | Disclaimer

   EN    FR    IT 

 









Légende :    VFR   VFR Marginal   IFR   IFR Intensif   IFR Très Intensif
Visi : 
Plafond : 
>= 8 km
>= 3000ft
5 à 8 km
1000 à 3000 ft
1500m à 5 km
500 à 1000 ft
800 à 1500m
200 à 500 ft
< 800m
< 200 ft
Symboles :   Orages  Brouillard  Fortes neiges  Fortes précipitations  Vent > 20 kt






- Altitude de l'aérodrome : 224 ft
- Code IATA : YEV


CYEV - Inuvik Mike Zubko

DERNIER METAR :
  • 192200Z 08007KT 10SM -SN OVC016 M07/M11 A2924 RMK SN2ST6 SLP909

METARs EXPIRÉS :
  • 192153Z 08008KT 10SM -SN OVC015 M07/M10 A2925 RMK SN2ST6 SLP912
  • 192100Z 13003KT 15SM BKN035 OVC100 M07/M10 A2927 RMK SC7AS1 SLP920
  • 192000Z 06004KT 15SM BKN040 OVC120 M08/M11 A2929 RMK SC7AS1 SLP925

TAF TAF CYEV
Valide du 19 à 19h jusqu'au 20 à 07h UTC


191838Z 1919/2007 06007KT P6SM BKN070
TEMPO 1919/1921 4SM -SN SCT010 OVC050
FM192100 08005KT 6SM -SN SCT010 OVC050
TEMPO 1921/2007 2SM -SN BKN008 OVC030
BECMG 1921/1923 VRB03KT RMK NXT FCST BY 200100Z



MET'MAP, la Météo Aéronautique d'un coup d'oeil ! - Copyright ORBIFLY Décembre 2007 - Disclaimer

ORBIFLY MET'MAP TEAM :

Programmation & Développement : Alexandra Zaïnal
Sur une idée originale de : Baudouin d'Aumeries
Assistance à la programmation : Marc-Olivier Méhu
Soutien technique & logistique : Manuel Goepfert

Contact : metmap@orbifly.com




SOURCES & CREDITS :

   NOAA       Earth
Advisory